createdAt,value
2019-03-20T00:01:43.465Z,117.83
2019-03-20T00:04:06.490Z,116.13
2019-03-20T00:06:37.802Z,121.77
2019-03-20T00:09:09.395Z,129.93
2019-03-20T00:11:40.533Z,137.33
2019-03-20T00:14:11.661Z,143.60
2019-03-20T00:16:43.082Z,129.37
2019-03-20T00:19:13.899Z,114.27
2019-03-20T00:21:45.167Z,104.77
2019-03-20T00:24:25.560Z,100.40
2019-03-20T00:26:57.175Z,89.53
2019-03-20T00:29:28.474Z,79.67
2019-03-20T00:32:01.329Z,85.23
2019-03-20T00:34:33.080Z,87.37
2019-03-20T00:37:04.208Z,90.87
2019-03-20T00:39:35.504Z,86.97
2019-03-20T00:42:06.964Z,83.57
2019-03-20T00:44:37.977Z,79.83
2019-03-20T00:47:09.262Z,79.17
2019-03-20T00:49:40.307Z,70.03
2019-03-20T00:52:11.396Z,64.90
2019-03-20T00:54:42.815Z,64.17
2019-03-20T00:57:14.148Z,58.90
2019-03-20T00:59:45.679Z,54.83
2019-03-20T01:02:16.894Z,54.93
2019-03-20T01:04:48.027Z,55.13
2019-03-20T01:07:19.816Z,60.60
2019-03-20T01:09:51.165Z,59.43
2019-03-20T01:12:22.360Z,59.30
2019-03-20T01:14:53.754Z,57.93
2019-03-20T01:17:24.740Z,60.00
2019-03-20T01:19:55.813Z,56.37
2019-03-20T01:22:26.923Z,57.30
2019-03-20T01:24:58.415Z,58.40
2019-03-20T01:27:30.085Z,57.33
2019-03-20T01:30:01.565Z,53.23
2019-03-20T01:32:32.320Z,50.17
2019-03-20T01:35:03.647Z,56.00
2019-03-20T01:37:35.048Z,52.33
2019-03-20T01:40:07.983Z,54.03
2019-03-20T01:42:39.133Z,54.87
2019-03-20T01:45:11.337Z,56.13
2019-03-20T01:47:42.267Z,56.93
2019-03-20T01:50:13.276Z,56.13
2019-03-20T01:52:44.417Z,59.70
2019-03-20T01:55:15.391Z,59.13
2019-03-20T01:57:46.779Z,59.67
2019-03-20T02:00:18.155Z,59.23
2019-03-20T02:02:49.576Z,58.77
2019-03-20T02:05:20.424Z,63.63
2019-03-20T02:07:51.990Z,60.00
2019-03-20T02:10:23.140Z,57.97
2019-03-20T02:12:54.201Z,59.00
2019-03-20T02:15:25.449Z,57.17
2019-03-20T02:17:56.591Z,57.43
2019-03-20T02:20:27.854Z,54.80
2019-03-20T02:22:59.068Z,56.83
2019-03-20T02:25:32.376Z,60.43
2019-03-20T02:28:04.061Z,59.13
2019-03-20T02:30:35.270Z,59.30
2019-03-20T02:33:06.818Z,53.07
2019-03-20T02:35:50.586Z,52.70
2019-03-20T02:38:10.941Z,51.60
2019-03-20T02:40:41.789Z,50.03
2019-03-20T02:43:13.037Z,53.73
2019-03-20T02:45:44.254Z,52.43
2019-03-20T02:48:15.637Z,53.33
2019-03-20T02:50:47.042Z,54.87
2019-03-20T02:53:18.216Z,56.57
2019-03-20T02:55:49.321Z,56.27
2019-03-20T02:58:20.274Z,55.67
2019-03-20T03:00:51.293Z,54.63
2019-03-20T03:03:22.050Z,53.40
2019-03-20T03:06:05.921Z,52.53
2019-03-20T03:08:25.885Z,53.33
2019-03-20T03:10:57.134Z,55.50
2019-03-20T03:13:27.967Z,54.30
2019-03-20T03:15:59.065Z,56.60
2019-03-20T03:18:30.098Z,52.40
2019-03-20T03:21:01.345Z,48.27
2019-03-20T03:23:32.488Z,45.03
2019-03-20T03:26:03.634Z,49.93
2019-03-20T03:28:34.833Z,49.77
2019-03-20T03:31:06.905Z,52.67
2019-03-20T03:33:38.060Z,55.27
2019-03-20T03:36:20.614Z,48.23
2019-03-20T03:38:42.117Z,46.47
2019-03-20T03:41:13.167Z,42.27
2019-03-20T03:43:44.170Z,45.47
2019-03-20T03:46:15.002Z,41.67
2019-03-20T03:48:45.879Z,47.63
2019-03-20T03:51:16.968Z,64.10
2019-03-20T03:53:49.136Z,69.13
2019-03-20T03:56:20.297Z,70.90
2019-03-20T03:58:51.659Z,72.53
2019-03-20T04:01:23.156Z,65.97
2019-03-20T04:03:54.623Z,60.50
2019-03-20T04:06:35.429Z,58.07
2019-03-20T04:08:58.859Z,53.47
2019-03-20T04:11:30.365Z,47.47
2019-03-20T04:14:01.312Z,41.53
2019-03-20T04:16:32.306Z,41.47
2019-03-20T04:19:03.321Z,40.50
2019-03-20T04:21:34.947Z,39.53
2019-03-20T04:24:07.175Z,40.00
2019-03-20T04:26:38.298Z,41.23
2019-03-20T04:29:09.510Z,42.67
2019-03-20T04:31:40.716Z,40.07
2019-03-20T04:34:11.981Z,35.43
2019-03-20T04:36:47.548Z,36.87
2019-03-20T04:39:15.606Z,42.30
2019-03-20T04:41:46.277Z,58.60
2019-03-20T04:44:17.535Z,55.03
2019-03-20T04:46:49.089Z,43.87
2019-03-20T04:49:20.695Z,46.70
2019-03-20T04:51:52.014Z,41.67
2019-03-20T04:54:23.248Z,37.23
2019-03-20T04:56:54.498Z,37.20
2019-03-20T04:59:25.715Z,33.27
2019-03-20T05:01:57.069Z,34.83
2019-03-20T05:04:29.041Z,36.50
2019-03-20T05:07:00.172Z,34.60
2019-03-20T05:09:31.748Z,36.60
2019-03-20T05:12:03.052Z,34.47
2019-03-20T05:14:34.059Z,31.43
2019-03-20T05:17:05.175Z,29.67
2019-03-20T05:19:36.254Z,31.20
2019-03-20T05:22:07.251Z,27.13
2019-03-20T05:24:38.192Z,27.80
2019-03-20T05:27:09.404Z,28.37
2019-03-20T05:29:40.711Z,27.70
2019-03-20T05:32:11.638Z,29.43
2019-03-20T05:34:42.655Z,29.43
2019-03-20T05:37:14.012Z,29.23
2019-03-20T05:39:45.707Z,30.40
2019-03-20T05:42:16.607Z,29.03
2019-03-20T05:44:47.667Z,28.60
2019-03-20T05:47:19.075Z,27.77
2019-03-20T05:49:50.430Z,28.10
2019-03-20T05:52:21.636Z,27.67
2019-03-20T05:54:52.700Z,29.17
2019-03-20T05:57:24.126Z,29.50
2019-03-20T05:59:55.174Z,30.87
2019-03-20T06:02:26.612Z,31.87
2019-03-20T06:04:58.264Z,30.53
2019-03-20T06:07:29.563Z,28.07
2019-03-20T06:10:01.234Z,28.30
2019-03-20T06:12:32.514Z,28.90
2019-03-20T06:15:03.961Z,28.53
2019-03-20T06:17:35.818Z,28.30
2019-03-20T06:20:11.101Z,28.20
2019-03-20T06:22:43.753Z,27.17
2019-03-20T06:25:16.619Z,22.07
2019-03-20T06:27:49.475Z,22.17
2019-03-20T06:30:22.453Z,22.87
2019-03-20T06:32:53.941Z,20.57
2019-03-20T06:35:25.052Z,20.10
2019-03-20T06:37:56.563Z,17.43
2019-03-20T06:40:28.200Z,17.20
2019-03-20T06:42:59.359Z,16.70
2019-03-20T06:45:33.572Z,14.93
2019-03-20T06:48:04.736Z,15.03
2019-03-20T06:50:35.777Z,14.90
2019-03-20T06:53:07.829Z,14.97
2019-03-20T06:55:39.239Z,14.77
2019-03-20T06:58:11.157Z,13.73
2019-03-20T07:00:47.139Z,14.67
2019-03-20T07:03:22.010Z,14.40
2019-03-20T07:05:56.490Z,13.33
2019-03-20T07:08:31.122Z,13.30
2019-03-20T07:11:02.148Z,14.97
2019-03-20T07:13:33.069Z,15.10
2019-03-20T07:16:05.782Z,13.17
2019-03-20T07:18:36.631Z,14.27
2019-03-20T07:21:08.861Z,13.23
2019-03-20T07:23:40.338Z,13.00
2019-03-20T07:26:11.577Z,14.73
2019-03-20T07:28:42.857Z,14.20
2019-03-20T07:31:15.648Z,12.73
2019-03-20T07:33:46.969Z,13.17
2019-03-20T07:36:18.140Z,13.20
2019-03-20T07:38:49.470Z,12.37
2019-03-20T07:41:20.808Z,11.47
2019-03-20T07:43:51.864Z,11.93
2019-03-20T07:46:23.240Z,12.40
2019-03-20T07:48:54.657Z,11.20
2019-03-20T07:51:25.850Z,11.23
2019-03-20T07:53:57.620Z,10.90
2019-03-20T07:56:28.396Z,11.07
2019-03-20T07:58:59.565Z,11.07
2019-03-20T08:01:30.800Z,9.70
2019-03-20T08:04:02.282Z,9.53
2019-03-20T08:06:35.069Z,11.50
2019-03-20T08:09:07.520Z,9.97
2019-03-20T08:11:38.823Z,10.07
2019-03-20T08:14:09.761Z,10.23
2019-03-20T08:16:41.251Z,8.93
2019-03-20T08:19:13.631Z,9.43
2019-03-20T08:21:44.388Z,9.47
2019-03-20T08:24:16.079Z,10.47
2019-03-20T08:26:47.667Z,10.83
2019-03-20T08:29:19.362Z,9.40
2019-03-20T08:31:51.228Z,10.80
2019-03-20T08:34:22.545Z,9.67
2019-03-20T08:36:53.774Z,9.30
2019-03-20T08:39:24.796Z,10.10
2019-03-20T08:41:56.058Z,9.27
2019-03-20T08:44:27.517Z,8.47
2019-03-20T08:46:59.465Z,7.43
2019-03-20T08:49:30.714Z,9.17
2019-03-20T08:52:02.026Z,9.17
2019-03-20T08:54:33.293Z,7.83
2019-03-20T08:57:04.457Z,9.93
2019-03-20T08:59:36.306Z,7.77
2019-03-20T09:02:07.740Z,7.67
2019-03-20T09:04:39.101Z,7.50
2019-03-20T09:07:10.588Z,8.70
2019-03-20T09:09:42.232Z,5.90
2019-03-20T09:12:13.669Z,7.40
2019-03-20T09:14:45.280Z,6.40
2019-03-20T09:17:17.222Z,5.43
2019-03-20T09:19:48.537Z,6.00
2019-03-20T09:22:20.156Z,4.83
2019-03-20T09:24:51.438Z,5.87
2019-03-20T09:27:22.953Z,7.33
2019-03-20T09:29:54.327Z,5.90
2019-03-20T09:32:25.815Z,5.83
2019-03-20T09:34:56.811Z,6.90
2019-03-20T09:37:28.014Z,6.07
2019-03-20T09:39:59.596Z,6.37
2019-03-20T09:42:31.077Z,5.80
2019-03-20T09:45:02.525Z,3.67
2019-03-20T09:47:34.031Z,5.43
2019-03-20T09:50:08.266Z,4.47
2019-03-20T09:52:39.874Z,6.60
2019-03-20T09:55:13.951Z,4.70
2019-03-20T09:57:45.242Z,5.70
2019-03-20T10:00:19.620Z,5.20
2019-03-20T10:02:50.988Z,6.03
2019-03-20T10:05:22.285Z,5.47
2019-03-20T10:07:53.286Z,4.90
2019-03-20T10:10:27.725Z,5.70
2019-03-20T10:12:59.079Z,3.53
2019-03-20T10:15:32.083Z,3.57
2019-03-20T10:18:03.221Z,3.23
2019-03-20T10:20:35.588Z,3.45
2019-03-20T10:23:07.612Z,4.00
2019-03-20T10:25:44.433Z,3.27
2019-03-20T10:28:11.539Z,4.17
2019-03-20T10:30:45.161Z,3.05
2019-03-20T10:33:17.374Z,3.37
2019-03-20T10:35:50.427Z,4.10
2019-03-20T10:38:21.854Z,2.87
2019-03-20T10:40:53.344Z,3.35
2019-03-20T10:43:24.550Z,3.85
2019-03-20T10:45:56.548Z,3.33
2019-03-20T10:48:28.395Z,3.02
2019-03-20T10:50:59.368Z,2.22
2019-03-20T10:53:31.186Z,2.72
2019-03-20T10:56:03.067Z,2.35
2019-03-20T10:58:34.375Z,1.82
2019-03-20T11:01:06.205Z,2.02
2019-03-20T11:03:36.885Z,2.30
2019-03-20T11:06:07.917Z,2.20
2019-03-20T11:08:39.520Z,2.10
2019-03-20T11:11:10.887Z,1.95
2019-03-20T11:13:43.629Z,2.45
2019-03-20T11:16:15.198Z,1.98
2019-03-20T11:18:48.625Z,2.72
2019-03-20T11:21:20.325Z,2.42
2019-03-20T11:23:51.445Z,2.45
2019-03-20T11:26:23.431Z,3.08
2019-03-20T11:28:55.104Z,3.72
2019-03-20T11:31:28.097Z,2.52
2019-03-20T11:33:59.980Z,2.50
2019-03-20T11:36:32.859Z,2.77
2019-03-20T11:39:05.466Z,3.12
2019-03-20T11:41:37.780Z,2.85
2019-03-20T11:44:09.466Z,2.80
2019-03-20T11:46:41.182Z,2.95
2019-03-20T11:49:13.242Z,3.70
2019-03-20T11:51:44.726Z,3.65
2019-03-20T11:54:16.316Z,4.62
2019-03-20T11:56:47.515Z,3.70
2019-03-20T11:59:18.935Z,3.85
2019-03-20T12:01:50.306Z,3.62
2019-03-20T12:04:22.502Z,3.67
2019-03-20T12:06:53.993Z,3.30
2019-03-20T12:09:25.629Z,3.62
2019-03-20T12:11:56.756Z,2.85
2019-03-20T12:14:28.148Z,2.80
2019-03-20T12:16:59.702Z,2.70
2019-03-20T12:19:30.838Z,3.30
2019-03-20T12:22:02.405Z,3.58
2019-03-20T12:24:33.726Z,3.02
2019-03-20T12:27:14.687Z,3.10
2019-03-20T12:29:38.302Z,3.20
2019-03-20T12:32:09.968Z,2.60
2019-03-20T12:34:42.011Z,2.42
2019-03-20T12:37:13.326Z,2.95
2019-03-20T12:39:52.815Z,2.85
2019-03-20T12:42:17.739Z,2.80
2019-03-20T12:44:49.341Z,3.17
2019-03-20T12:47:21.072Z,2.83
2019-03-20T12:49:52.478Z,2.90
2019-03-20T12:52:24.193Z,4.50
2019-03-20T12:54:55.593Z,3.08
2019-03-20T12:57:27.326Z,2.90
2019-03-20T12:59:59.610Z,3.30
2019-03-20T13:02:31.319Z,2.77
2019-03-20T13:05:02.878Z,2.37
2019-03-20T13:07:34.760Z,2.50
2019-03-20T13:10:09.378Z,3.35
2019-03-20T13:12:41.927Z,2.85
2019-03-20T13:15:16.191Z,2.60
2019-03-20T13:17:47.730Z,2.52
2019-03-20T13:20:19.097Z,2.85
2019-03-20T13:22:53.538Z,2.47
2019-03-20T13:25:25.073Z,2.55
2019-03-20T13:27:57.761Z,2.70
2019-03-20T13:30:32.250Z,2.33
2019-03-20T13:33:03.850Z,2.47
2019-03-20T13:35:34.952Z,2.92
2019-03-20T13:38:06.453Z,2.75
2019-03-20T13:40:37.723Z,3.25
2019-03-20T13:43:09.339Z,2.95
2019-03-20T13:45:40.683Z,2.67
2019-03-20T13:48:12.079Z,2.55
2019-03-20T13:50:43.065Z,3.55
2019-03-20T13:53:15.482Z,2.45
2019-03-20T13:55:47.073Z,3.37
2019-03-20T13:58:18.381Z,3.05
2019-03-20T14:00:49.744Z,3.05
2019-03-20T14:03:21.182Z,3.12
2019-03-20T14:05:52.786Z,3.12
2019-03-20T14:08:24.040Z,3.40
2019-03-20T14:10:55.283Z,3.25
2019-03-20T14:13:26.724Z,2.92
2019-03-20T14:15:59.065Z,3.05
2019-03-20T14:18:30.838Z,3.42
2019-03-20T14:21:02.066Z,2.85
2019-03-20T14:23:33.131Z,3.50
2019-03-20T14:26:04.001Z,3.02
2019-03-20T14:28:35.063Z,3.02
2019-03-20T14:31:06.335Z,2.40
2019-03-20T14:33:38.134Z,2.60
2019-03-20T14:36:09.445Z,3.25
2019-03-20T14:38:42.146Z,2.92
2019-03-20T14:41:21.215Z,3.12
2019-03-20T14:43:46.111Z,2.55
2019-03-20T14:46:17.373Z,2.85
2019-03-20T14:48:48.835Z,2.55
2019-03-20T14:51:20.708Z,2.58
2019-03-20T14:53:52.554Z,2.95
2019-03-20T14:56:23.906Z,2.92
2019-03-20T14:58:55.065Z,3.05
2019-03-20T15:01:26.483Z,3.20
2019-03-20T15:03:59.958Z,3.12
2019-03-20T15:06:31.310Z,2.35
2019-03-20T15:09:02.348Z,3.05
2019-03-20T15:11:33.850Z,2.30
2019-03-20T15:14:05.740Z,7.50
2019-03-20T15:16:37.404Z,1.87
2019-03-20T15:19:08.874Z,3.35
2019-03-20T15:21:40.313Z,22.98
2019-03-20T15:24:11.494Z,8.53
2019-03-20T15:26:43.680Z,4.67
2019-03-20T15:29:15.096Z,9.48
2019-03-20T15:31:46.724Z,2.87
2019-03-20T15:34:18.577Z,2.65
2019-03-20T15:36:50.224Z,2.10
2019-03-20T15:39:21.694Z,2.22
2019-03-20T15:41:53.404Z,2.50
2019-03-20T15:44:24.748Z,2.27
2019-03-20T15:46:55.683Z,3.95
2019-03-20T15:49:26.997Z,2.60
2019-03-20T15:51:58.119Z,9.68
2019-03-20T15:54:29.432Z,3.25
2019-03-20T15:57:00.630Z,3.85
2019-03-20T15:59:34.488Z,12.93
2019-03-20T16:02:05.766Z,4.20
2019-03-20T16:04:37.520Z,32.88
2019-03-20T16:07:08.893Z,2.17
2019-03-20T16:09:40.254Z,4.75
2019-03-20T16:12:11.632Z,18.73
2019-03-20T16:14:42.795Z,6.72
2019-03-20T16:17:14.158Z,3.20
2019-03-20T16:19:45.379Z,4.25
2019-03-20T16:22:16.466Z,4.15
2019-03-20T16:24:48.082Z,2.35
2019-03-20T16:27:19.443Z,3.75
2019-03-20T16:29:51.854Z,4.53
2019-03-20T16:32:24.484Z,3.72
2019-03-20T16:34:56.307Z,14.90
2019-03-20T16:37:27.690Z,5.70
2019-03-20T16:39:58.877Z,3.42
2019-03-20T16:42:34.222Z,3.30
2019-03-20T16:45:08.720Z,4.70
2019-03-20T16:47:40.117Z,7.10
2019-03-20T16:50:15.135Z,4.80
2019-03-20T16:52:46.986Z,4.10
2019-03-20T16:55:18.950Z,3.00
2019-03-20T16:57:50.190Z,18.42
2019-03-20T17:00:22.846Z,2.72
2019-03-20T17:02:53.897Z,4.85
2019-03-20T17:05:25.823Z,4.40
2019-03-20T17:07:57.376Z,6.60
2019-03-20T17:10:30.016Z,9.78
2019-03-20T17:13:01.881Z,27.30
2019-03-20T17:15:35.543Z,7.90
2019-03-20T17:18:31.271Z,8.08
2019-03-20T17:21:04.094Z,9.45
2019-03-20T17:23:35.597Z,8.15
2019-03-20T17:26:07.325Z,8.20
2019-03-20T17:28:38.762Z,17.15
2019-03-20T17:31:11.682Z,31.50
2019-03-20T17:33:42.878Z,19.82
2019-03-20T17:36:14.415Z,19.42
2019-03-20T17:38:45.738Z,13.83
2019-03-20T17:41:17.220Z,9.25
2019-03-20T17:56:35.563Z,28.57
2019-03-20T18:12:09.125Z,81.75
2019-03-20T18:14:40.447Z,29.82
2019-03-20T18:17:11.730Z,11.75
2019-03-20T18:19:42.733Z,11.85
2019-03-20T18:22:14.156Z,8.05
2019-03-20T18:24:45.111Z,9.05
2019-03-20T18:27:16.632Z,10.72
2019-03-20T18:29:50.827Z,9.05
2019-03-20T18:32:22.399Z,10.10
2019-03-20T18:34:53.548Z,10.38
2019-03-20T18:37:24.780Z,12.35
2019-03-20T18:39:55.632Z,14.68
2019-03-20T18:42:26.717Z,14.65
2019-03-20T18:44:58.433Z,11.25
2019-03-20T18:47:29.919Z,22.25
2019-03-20T18:50:05.449Z,19.32
2019-03-20T18:52:46.670Z,18.70
2019-03-20T18:58:27.440Z,22.37
2019-03-20T19:01:04.131Z,46.67
2019-03-20T19:07:22.472Z,36.50
2019-03-20T19:09:57.513Z,20.70
2019-03-20T19:19:21.373Z,46.87
2019-03-20T19:21:54.279Z,35.23
2019-03-20T19:24:26.086Z,27.20
2019-03-20T19:27:02.775Z,11.90
2019-03-20T19:29:39.645Z,9.13
2019-03-20T19:32:13.518Z,8.18
2019-03-20T19:41:16.582Z,12.85
2019-03-20T20:22:09.970Z,17.35
2019-03-20T20:24:50.404Z,8.93
2019-03-20T20:27:23.095Z,5.87
2019-03-20T20:29:56.560Z,7.97
2019-03-20T23:02:29.807Z,7.87
2019-03-20T23:05:03.416Z,8.58
2019-03-20T23:07:34.796Z,8.15
2019-03-20T23:10:09.843Z,8.15
2019-03-20T23:12:40.793Z,8.05
2019-03-20T23:15:15.005Z,8.23
2019-03-20T23:17:46.393Z,10.48
2019-03-20T23:20:21.332Z,9.63
2019-03-20T23:22:53.649Z,8.43
2019-03-20T23:25:25.689Z,8.13
2019-03-20T23:27:57.082Z,8.33
2019-03-20T23:30:30.087Z,9.30
2019-03-20T23:33:01.469Z,8.63
2019-03-20T23:35:32.772Z,8.73
2019-03-20T23:38:04.067Z,8.15
2019-03-20T23:40:35.373Z,8.80
2019-03-20T23:43:08.876Z,8.28
2019-03-20T23:45:40.038Z,8.58
2019-03-20T23:48:14.709Z,9.08
2019-03-20T23:50:46.387Z,8.73
2019-03-20T23:53:18.755Z,8.50
2019-03-20T23:55:49.734Z,9.45
2019-03-20T23:58:21.908Z,8.73
